sensor_id;sensor_type;location;lat;lon;timestamp;pressure;altitude;pressure_sealevel;temperature;humidity
72024;BME280;59889;50.700;5.440;2024-02-28T00:02:17;100439.26;;;19.65;34.82
72024;BME280;59889;50.700;5.440;2024-02-28T00:04:42;100440.18;;;19.63;34.83
72024;BME280;59889;50.700;5.440;2024-02-28T00:07:07;100440.17;;;19.54;34.95
72024;BME280;59889;50.700;5.440;2024-02-28T00:09:32;100438.42;;;19.43;34.78
72024;BME280;59889;50.700;5.440;2024-02-28T00:11:57;100437.80;;;19.72;34.73
72024;BME280;59889;50.700;5.440;2024-02-28T00:14:22;100437.74;;;19.68;34.78
72024;BME280;59889;50.700;5.440;2024-02-28T00:16:48;100437.90;;;19.66;34.78
72024;BME280;59889;50.700;5.440;2024-02-28T00:19:13;100440.50;;;19.31;34.90
72024;BME280;59889;50.700;5.440;2024-02-28T00:21:38;100442.46;;;19.93;34.74
72024;BME280;59889;50.700;5.440;2024-02-28T00:24:03;100444.18;;;19.59;34.86
72024;BME280;59889;50.700;5.440;2024-02-28T00:26:28;100444.96;;;19.83;34.57
72024;BME280;59889;50.700;5.440;2024-02-28T00:28:53;100438.85;;;19.70;34.72
72024;BME280;59889;50.700;5.440;2024-02-28T00:31:18;100436.93;;;19.80;34.61
72024;BME280;59889;50.700;5.440;2024-02-28T00:33:43;100434.66;;;19.51;34.94
72024;BME280;59889;50.700;5.440;2024-02-28T00:36:09;100433.90;;;19.70;34.72
72024;BME280;59889;50.700;5.440;2024-02-28T00:38:34;100435.11;;;19.30;34.90
72024;BME280;59889;50.700;5.440;2024-02-28T00:40:59;100436.53;;;19.68;34.74
72024;BME280;59889;50.700;5.440;2024-02-28T00:43:24;100443.89;;;19.26;34.95
72024;BME280;59889;50.700;5.440;2024-02-28T00:45:49;100448.00;;;19.54;34.89
72024;BME280;59889;50.700;5.440;2024-02-28T00:48:14;100449.17;;;19.62;34.81
72024;BME280;59889;50.700;5.440;2024-02-28T00:50:39;100452.30;;;19.61;34.78
72024;BME280;59889;50.700;5.440;2024-02-28T00:53:04;100459.35;;;19.65;34.76
72024;BME280;59889;50.700;5.440;2024-02-28T00:55:29;100466.84;;;19.79;34.58
72024;BME280;59889;50.700;5.440;2024-02-28T00:57:54;100466.89;;;19.54;34.62
72024;BME280;59889;50.700;5.440;2024-02-28T01:00:19;100469.68;;;19.67;34.73
72024;BME280;59889;50.700;5.440;2024-02-28T01:02:44;100463.19;;;19.81;34.55
72024;BME280;59889;50.700;5.440;2024-02-28T01:05:09;100461.69;;;19.40;34.75
72024;BME280;59889;50.700;5.440;2024-02-28T01:07:34;100464.20;;;19.73;34.62
72024;BME280;59889;50.700;5.440;2024-02-28T01:09:59;100463.60;;;19.65;34.71
72024;BME280;59889;50.700;5.440;2024-02-28T01:12:24;100461.68;;;19.81;34.56
72024;BME280;59889;50.700;5.440;2024-02-28T01:14:49;100457.95;;;19.66;34.71
72024;BME280;59889;50.700;5.440;2024-02-28T01:17:14;100456.48;;;19.69;34.66
72024;BME280;59889;50.700;5.440;2024-02-28T01:19:39;100457.29;;;19.69;34.65
72024;BME280;59889;50.700;5.440;2024-02-28T01:22:05;100451.77;;;19.65;34.68
72024;BME280;59889;50.700;5.440;2024-02-28T01:24:30;100448.05;;;19.52;34.58
72024;BME280;59889;50.700;5.440;2024-02-28T01:26:55;100446.23;;;19.77;34.54
72024;BME280;59889;50.700;5.440;2024-02-28T01:29:20;100447.23;;;19.69;34.63
72024;BME280;59889;50.700;5.440;2024-02-28T01:31:45;100444.89;;;19.69;34.63
72024;BME280;59889;50.700;5.440;2024-02-28T01:34:10;100444.17;;;19.76;34.54
72024;BME280;59889;50.700;5.440;2024-02-28T01:36:35;100449.82;;;19.83;34.45
72024;BME280;59889;50.700;5.440;2024-02-28T01:39:00;100448.83;;;19.74;34.56
72024;BME280;59889;50.700;5.440;2024-02-28T01:41:25;100442.30;;;19.67;34.61
72024;BME280;59889;50.700;5.440;2024-02-28T01:43:50;100445.30;;;20.03;34.50
72024;BME280;59889;50.700;5.440;2024-02-28T01:46:21;100441.45;;;19.83;34.45
72024;BME280;59889;50.700;5.440;2024-02-28T01:48:40;100434.38;;;19.82;34.45
72024;BME280;59889;50.700;5.440;2024-02-28T01:51:05;100431.66;;;19.81;34.45
72024;BME280;59889;50.700;5.440;2024-02-28T01:53:30;100439.63;;;19.76;34.49
72024;BME280;59889;50.700;5.440;2024-02-28T01:55:55;100441.74;;;19.54;34.50
72024;BME280;59889;50.700;5.440;2024-02-28T01:58:21;100441.63;;;19.88;34.64
72024;BME280;59889;50.700;5.440;2024-02-28T02:00:46;100445.29;;;19.70;34.54
72024;BME280;59889;50.700;5.440;2024-02-28T02:03:11;100443.97;;;20.03;34.46
72024;BME280;59889;50.700;5.440;2024-02-28T02:05:36;100440.33;;;19.68;34.57
72024;BME280;59889;50.700;5.440;2024-02-28T02:08:01;100435.51;;;19.36;34.63
72024;BME280;59889;50.700;5.440;2024-02-28T02:10:26;100435.01;;;19.71;34.54
72024;BME280;59889;50.700;5.440;2024-02-28T02:12:51;100439.13;;;19.68;34.57
72024;BME280;59889;50.700;5.440;2024-02-28T02:15:16;100434.34;;;19.64;34.60
72024;BME280;59889;50.700;5.440;2024-02-28T02:17:41;100432.68;;;19.81;34.68
72024;BME280;59889;50.700;5.440;2024-02-28T02:20:08;100429.42;;;19.71;34.53
72024;BME280;59889;50.700;5.440;2024-02-28T02:22:34;100426.12;;;19.37;34.63
72024;BME280;59889;50.700;5.440;2024-02-28T02:24:56;100427.85;;;19.49;34.49
72024;BME280;59889;50.700;5.440;2024-02-28T02:27:24;100432.89;;;19.76;34.45
72024;BME280;59889;50.700;5.440;2024-02-28T02:29:46;100440.23;;;19.76;34.45
72024;BME280;59889;50.700;5.440;2024-02-28T02:32:12;100446.48;;;19.65;34.59
72024;BME280;59889;50.700;5.440;2024-02-28T02:34:36;100452.43;;;19.64;34.59
72024;BME280;59889;50.700;5.440;2024-02-28T02:37:01;100449.34;;;19.83;34.63
72024;BME280;59889;50.700;5.440;2024-02-28T02:39:26;100450.62;;;19.63;34.60
72024;BME280;59889;50.700;5.440;2024-02-28T02:41:52;100449.02;;;19.53;34.72
72024;BME280;59889;50.700;5.440;2024-02-28T02:44:16;100442.96;;;19.68;34.53
72024;BME280;59889;50.700;5.440;2024-02-28T02:46:42;100442.56;;;19.88;34.57
72024;BME280;59889;50.700;5.440;2024-02-28T02:49:07;100441.69;;;19.92;34.53
72024;BME280;59889;50.700;5.440;2024-02-28T02:51:32;100443.94;;;19.83;34.64
72024;BME280;59889;50.700;5.440;2024-02-28T02:53:57;100450.89;;;19.66;34.54
72024;BME280;59889;50.700;5.440;2024-02-28T02:56:22;100456.93;;;19.67;34.53
72024;BME280;59889;50.700;5.440;2024-02-28T02:58:48;100459.61;;;19.60;34.60
72024;BME280;59889;50.700;5.440;2024-02-28T03:01:12;100459.72;;;19.89;34.55
72024;BME280;59889;50.700;5.440;2024-02-28T03:03:37;100454.77;;;19.71;34.45
72024;BME280;59889;50.700;5.440;2024-02-28T03:06:02;100451.58;;;19.72;34.44
72024;BME280;59889;50.700;5.440;2024-02-28T03:08:27;100457.78;;;19.59;34.61
72024;BME280;59889;50.700;5.440;2024-02-28T03:10:53;100458.12;;;19.66;34.51
72024;BME280;59889;50.700;5.440;2024-02-28T03:13:17;100457.53;;;19.62;34.56
72024;BME280;59889;50.700;5.440;2024-02-28T03:15:42;100449.18;;;19.65;34.50
72024;BME280;59889;50.700;5.440;2024-02-28T03:18:07;100447.06;;;19.69;34.45
72024;BME280;59889;50.700;5.440;2024-02-28T03:20:32;100449.90;;;19.64;34.53
72024;BME280;59889;50.700;5.440;2024-02-28T03:22:57;100455.49;;;19.65;34.50
72024;BME280;59889;50.700;5.440;2024-02-28T03:25:22;100453.15;;;19.66;34.49
72024;BME280;59889;50.700;5.440;2024-02-28T03:27:48;100459.47;;;19.64;34.50
72024;BME280;59889;50.700;5.440;2024-02-28T03:30:13;100466.26;;;19.65;34.46
72024;BME280;59889;50.700;5.440;2024-02-28T03:32:38;100468.00;;;19.74;34.38
72024;BME280;59889;50.700;5.440;2024-02-28T03:35:04;100466.10;;;19.75;34.37
72024;BME280;59889;50.700;5.440;2024-02-28T03:37:28;100464.62;;;19.72;34.39
72024;BME280;59889;50.700;5.440;2024-02-28T03:39:53;100463.89;;;19.69;34.40
72024;BME280;59889;50.700;5.440;2024-02-28T03:42:18;100471.82;;;19.64;34.51
72024;BME280;59889;50.700;5.440;2024-02-28T03:44:43;100476.34;;;19.72;34.41
72024;BME280;59889;50.700;5.440;2024-02-28T03:47:08;100479.42;;;19.59;34.55
72024;BME280;59889;50.700;5.440;2024-02-28T03:49:33;100482.78;;;19.61;34.54
72024;BME280;59889;50.700;5.440;2024-02-28T03:51:58;100483.22;;;19.60;34.52
72024;BME280;59889;50.700;5.440;2024-02-28T03:54:23;100486.97;;;19.64;34.48
72024;BME280;59889;50.700;5.440;2024-02-28T03:56:48;100490.83;;;20.12;34.46
72024;BME280;59889;50.700;5.440;2024-02-28T03:59:13;100489.44;;;19.47;34.66
72024;BME280;59889;50.700;5.440;2024-02-28T04:01:38;100485.90;;;19.50;34.68
72024;BME280;59889;50.700;5.440;2024-02-28T04:04:04;100489.46;;;19.54;34.60
72024;BME280;59889;50.700;5.440;2024-02-28T04:06:29;100494.96;;;19.67;34.67
72024;BME280;59889;50.700;5.440;2024-02-28T04:08:53;100491.89;;;19.56;34.57
72024;BME280;59889;50.700;5.440;2024-02-28T04:11:19;100491.73;;;19.75;34.63
72024;BME280;59889;50.700;5.440;2024-02-28T04:13:44;100493.36;;;19.76;34.62
72024;BME280;59889;50.700;5.440;2024-02-28T04:16:10;100494.47;;;19.36;34.80
72024;BME280;59889;50.700;5.440;2024-02-28T04:18:34;100490.15;;;19.80;34.55
72024;BME280;59889;50.700;5.440;2024-02-28T04:20:59;100494.35;;;19.30;34.80
72024;BME280;59889;50.700;5.440;2024-02-28T04:23:25;100491.08;;;19.49;34.64
72024;BME280;59889;50.700;5.440;2024-02-28T04:25:50;100492.45;;;19.58;34.54
72024;BME280;59889;50.700;5.440;2024-02-28T04:28:15;100491.94;;;19.74;34.61
72024;BME280;59889;50.700;5.440;2024-02-28T04:30:40;100493.24;;;19.67;34.71
72024;BME280;59889;50.700;5.440;2024-02-28T04:33:05;100496.16;;;19.55;34.57
72024;BME280;59889;50.700;5.440;2024-02-28T04:35:31;100497.30;;;19.51;34.58
72024;BME280;59889;50.700;5.440;2024-02-28T04:37:55;100503.02;;;19.40;34.70
72024;BME280;59889;50.700;5.440;2024-02-28T04:40:20;100499.67;;;19.51;34.60
72024;BME280;59889;50.700;5.440;2024-02-28T04:42:45;100500.95;;;19.39;34.72
72024;BME280;59889;50.700;5.440;2024-02-28T04:45:10;100494.47;;;19.46;34.66
72024;BME280;59889;50.700;5.440;2024-02-28T04:47:36;100491.68;;;19.56;34.51
72024;BME280;59889;50.700;5.440;2024-02-28T04:50:01;100490.98;;;19.59;34.73
72024;BME280;59889;50.700;5.440;2024-02-28T04:52:25;100485.40;;;19.85;34.44
72024;BME280;59889;50.700;5.440;2024-02-28T04:54:50;100489.69;;;19.76;34.55
72024;BME280;59889;50.700;5.440;2024-02-28T04:57:15;100490.93;;;19.84;34.45
72024;BME280;59889;50.700;5.440;2024-02-28T04:59:43;100492.50;;;19.38;34.70
72024;BME280;59889;50.700;5.440;2024-02-28T05:02:06;100491.29;;;19.39;34.70
72024;BME280;59889;50.700;5.440;2024-02-28T05:04:31;100493.71;;;19.71;34.60
72024;BME280;59889;50.700;5.440;2024-02-28T05:06:56;100499.27;;;19.21;34.63
72024;BME280;59889;50.700;5.440;2024-02-28T05:09:21;100505.14;;;19.41;34.69
72024;BME280;59889;50.700;5.440;2024-02-28T05:11:46;100508.66;;;19.21;34.64
72024;BME280;59889;50.700;5.440;2024-02-28T05:14:11;100510.26;;;19.74;34.57
72024;BME280;59889;50.700;5.440;2024-02-28T05:16:36;100509.46;;;19.51;34.58
72024;BME280;59889;50.700;5.440;2024-02-28T05:19:01;100501.47;;;19.57;34.51
72024;BME280;59889;50.700;5.440;2024-02-28T05:21:26;100501.08;;;19.77;34.55
72024;BME280;59889;50.700;5.440;2024-02-28T05:23:51;100499.93;;;19.45;34.64
72024;BME280;59889;50.700;5.440;2024-02-28T05:26:17;100507.35;;;19.50;34.59
72024;BME280;59889;50.700;5.440;2024-02-28T05:28:41;100507.13;;;19.72;34.58
72024;BME280;59889;50.700;5.440;2024-02-28T05:31:20;100507.15;;;19.49;34.62
72024;BME280;59889;50.700;5.440;2024-02-28T05:33:31;100506.91;;;19.73;34.58
72024;BME280;59889;50.700;5.440;2024-02-28T05:35:56;100508.51;;;19.41;34.69
72024;BME280;59889;50.700;5.440;2024-02-28T05:38:21;100509.82;;;19.71;34.63
72024;BME280;59889;50.700;5.440;2024-02-28T05:40:47;100513.63;;;19.44;34.67
72024;BME280;59889;50.700;5.440;2024-02-28T05:43:11;100514.95;;;19.71;34.60
72024;BME280;59889;50.700;5.440;2024-02-28T05:45:37;100516.25;;;20.00;34.56
72024;BME280;59889;50.700;5.440;2024-02-28T05:48:03;100518.68;;;19.72;34.62
72024;BME280;59889;50.700;5.440;2024-02-28T05:50:27;100525.36;;;19.76;34.56
72024;BME280;59889;50.700;5.440;2024-02-28T05:52:52;100529.78;;;19.58;34.51
72024;BME280;59889;50.700;5.440;2024-02-28T05:55:17;100531.44;;;19.56;34.50
72024;BME280;59889;50.700;5.440;2024-02-28T05:57:42;100534.51;;;19.48;34.63
72024;BME280;59889;50.700;5.440;2024-02-28T06:00:08;100533.75;;;19.52;34.56
72024;BME280;59889;50.700;5.440;2024-02-28T06:02:32;100530.18;;;19.55;34.53
72024;BME280;59889;50.700;5.440;2024-02-28T06:04:57;100534.35;;;19.56;34.51
72024;BME280;59889;50.700;5.440;2024-02-28T06:07:23;100538.35;;;19.52;34.57
72024;BME280;59889;50.700;5.440;2024-02-28T06:09:48;100537.49;;;19.62;34.45
72024;BME280;59889;50.700;5.440;2024-02-28T06:12:13;100540.88;;;19.62;34.45
72024;BME280;59889;50.700;5.440;2024-02-28T06:14:38;100543.55;;;19.53;34.57
72024;BME280;59889;50.700;5.440;2024-02-28T06:17:03;100540.84;;;19.40;34.43
72024;BME280;59889;50.700;5.440;2024-02-28T06:19:29;100544.29;;;19.86;34.44
72024;BME280;59889;50.700;5.440;2024-02-28T06:21:53;100547.75;;;19.59;34.47
72024;BME280;59889;50.700;5.440;2024-02-28T06:24:18;100555.37;;;19.60;34.45
72024;BME280;59889;50.700;5.440;2024-02-28T06:26:43;100554.61;;;19.61;34.41
72024;BME280;59889;50.700;5.440;2024-02-28T06:29:08;100554.75;;;19.79;34.53
72024;BME280;59889;50.700;5.440;2024-02-28T06:31:33;100553.89;;;19.73;34.32
72024;BME280;59889;50.700;5.440;2024-02-28T06:34:00;100554.38;;;19.58;34.49
72024;BME280;59889;50.700;5.440;2024-02-28T06:36:23;100552.06;;;19.69;34.35
72024;BME280;59889;50.700;5.440;2024-02-28T06:38:48;100554.57;;;19.55;34.52
72024;BME280;59889;50.700;5.440;2024-02-28T06:41:14;100553.88;;;19.55;34.54
72024;BME280;59889;50.700;5.440;2024-02-28T06:43:39;100560.14;;;19.69;34.66
72024;BME280;59889;50.700;5.440;2024-02-28T06:46:04;100561.75;;;19.59;34.49
72024;BME280;59889;50.700;5.440;2024-02-28T06:48:29;100562.88;;;19.83;34.45
72024;BME280;59889;50.700;5.440;2024-02-28T06:50:54;100565.04;;;19.63;34.42
72024;BME280;59889;50.700;5.440;2024-02-28T06:53:19;100571.12;;;19.72;34.57
72024;BME280;59889;50.700;5.440;2024-02-28T06:55:44;100576.66;;;19.56;34.49
72024;BME280;59889;50.700;5.440;2024-02-28T06:58:10;100581.14;;;19.62;34.42
72024;BME280;59889;50.700;5.440;2024-02-28T07:00:34;100579.21;;;19.50;34.54
72024;BME280;59889;50.700;5.440;2024-02-28T07:02:59;100574.25;;;19.61;34.44
72024;BME280;59889;50.700;5.440;2024-02-28T07:05:24;100572.46;;;19.77;34.52
72024;BME280;59889;50.700;5.440;2024-02-28T07:07:49;100574.21;;;19.43;34.63
72024;BME280;59889;50.700;5.440;2024-02-28T07:10:14;100579.28;;;19.50;34.56
72024;BME280;59889;50.700;5.440;2024-02-28T07:12:40;100582.73;;;19.70;34.32
72024;BME280;59889;50.700;5.440;2024-02-28T07:15:05;100585.74;;;19.63;34.40
72024;BME280;59889;50.700;5.440;2024-02-28T07:17:29;100587.47;;;19.81;34.47
72024;BME280;59889;50.700;5.440;2024-02-28T07:19:55;100584.86;;;19.61;34.41
72024;BME280;59889;50.700;5.440;2024-02-28T07:22:20;100582.13;;;19.59;34.44
72024;BME280;59889;50.700;5.440;2024-02-28T07:24:45;100576.04;;;19.57;34.45
72024;BME280;59889;50.700;5.440;2024-02-28T07:27:10;100578.31;;;19.53;34.50
72024;BME280;59889;50.700;5.440;2024-02-28T07:29:36;100583.26;;;19.57;34.46
72024;BME280;59889;50.700;5.440;2024-02-28T07:32:01;100592.23;;;19.85;34.40
72024;BME280;59889;50.700;5.440;2024-02-28T07:34:25;100600.26;;;19.49;34.53
72024;BME280;59889;50.700;5.440;2024-02-28T07:36:50;100602.05;;;19.55;34.26
72024;BME280;59889;50.700;5.440;2024-02-28T07:39:16;100605.80;;;19.46;33.11
72024;BME280;59889;50.700;5.440;2024-02-28T07:41:41;100612.47;;;19.43;33.73
72024;BME280;59889;50.700;5.440;2024-02-28T07:44:06;100617.77;;;19.72;34.01
72024;BME280;59889;50.700;5.440;2024-02-28T07:46:31;100623.97;;;19.77;34.01
72024;BME280;59889;50.700;5.440;2024-02-28T07:48:56;100623.94;;;19.49;34.13
72024;BME280;59889;50.700;5.440;2024-02-28T07:51:22;100626.60;;;19.81;34.14
72024;BME280;59889;50.700;5.440;2024-02-28T07:53:48;100627.21;;;19.90;34.12
72024;BME280;59889;50.700;5.440;2024-02-28T07:56:16;100623.63;;;19.84;34.33
72024;BME280;59889;50.700;5.440;2024-02-28T07:58:38;100621.15;;;19.55;33.91
72024;BME280;59889;50.700;5.440;2024-02-28T08:01:04;100625.31;;;19.63;33.35
72024;BME280;59889;50.700;5.440;2024-02-28T08:03:29;100627.21;;;19.80;33.68
72024;BME280;59889;50.700;5.440;2024-02-28T08:05:54;100620.52;;;19.20;33.83
72024;BME280;59889;50.700;5.440;2024-02-28T08:08:20;100620.49;;;19.63;33.85
72024;BME280;59889;50.700;5.440;2024-02-28T08:10:45;100618.90;;;19.37;33.87
72024;BME280;59889;50.700;5.440;2024-02-28T08:13:10;100614.98;;;19.39;33.78
72024;BME280;59889;50.700;5.440;2024-02-28T08:15:36;100613.48;;;19.63;33.63
72024;BME280;59889;50.700;5.440;2024-02-28T08:18:03;100618.06;;;19.44;33.48
72024;BME280;59889;50.700;5.440;2024-02-28T08:20:27;100624.75;;;19.45;33.47
72024;BME280;59889;50.700;5.440;2024-02-28T08:22:53;100626.81;;;19.40;33.43
72024;BME280;59889;50.700;5.440;2024-02-28T08:25:18;100627.38;;;19.66;33.41
72024;BME280;59889;50.700;5.440;2024-02-28T08:27:43;100625.02;;;19.42;33.42
72024;BME280;59889;50.700;5.440;2024-02-28T08:30:09;100623.89;;;19.44;33.51
72024;BME280;59889;50.700;5.440;2024-02-28T08:32:35;100624.37;;;19.79;33.37
72024;BME280;59889;50.700;5.440;2024-02-28T08:35:00;100633.60;;;20.09;33.33
72024;BME280;59889;50.700;5.440;2024-02-28T08:37:25;100640.55;;;19.54;33.36
72024;BME280;59889;50.700;5.440;2024-02-28T08:39:50;100644.59;;;19.50;33.32
72024;BME280;59889;50.700;5.440;2024-02-28T08:42:16;100646.51;;;19.46;33.35
72024;BME280;59889;50.700;5.440;2024-02-28T08:44:41;100642.32;;;19.52;33.28
72024;BME280;59889;50.700;5.440;2024-02-28T08:47:07;100644.73;;;19.50;33.28
72024;BME280;59889;50.700;5.440;2024-02-28T08:49:33;100645.85;;;19.70;33.28
72024;BME280;59889;50.700;5.440;2024-02-28T08:51:58;100652.40;;;19.18;33.29
72024;BME280;59889;50.700;5.440;2024-02-28T08:54:24;100656.98;;;19.58;33.06
72024;BME280;59889;50.700;5.440;2024-02-28T08:56:50;100665.35;;;19.51;33.07
72024;BME280;59889;50.700;5.440;2024-02-28T08:59:14;100668.26;;;19.50;33.03
72024;BME280;59889;50.700;5.440;2024-02-28T09:01:40;100672.78;;;19.50;32.96
72024;BME280;59889;50.700;5.440;2024-02-28T09:04:05;100676.30;;;19.53;32.92
72024;BME280;59889;50.700;5.440;2024-02-28T09:06:30;100677.24;;;19.56;32.82
72024;BME280;59889;50.700;5.440;2024-02-28T09:08:56;100677.86;;;19.50;32.87
72024;BME280;59889;50.700;5.440;2024-02-28T09:11:21;100676.84;;;19.39;33.01
72024;BME280;59889;50.700;5.440;2024-02-28T09:13:46;100678.76;;;19.47;32.90
72024;BME280;59889;50.700;5.440;2024-02-28T09:16:11;100681.43;;;19.38;33.02
72024;BME280;59889;50.700;5.440;2024-02-28T09:18:37;100677.17;;;19.57;33.01
72024;BME280;59889;50.700;5.440;2024-02-28T09:21:02;100674.70;;;19.42;32.90
72024;BME280;59889;50.700;5.440;2024-02-28T09:23:27;100671.70;;;19.62;32.83
72024;BME280;59889;50.700;5.440;2024-02-28T09:25:53;100669.49;;;19.29;32.88
72024;BME280;59889;50.700;5.440;2024-02-28T09:28:19;100665.42;;;19.66;32.71
72024;BME280;59889;50.700;5.440;2024-02-28T09:30:44;100668.81;;;19.41;32.64
72024;BME280;59889;50.700;5.440;2024-02-28T09:33:09;100668.37;;;19.87;32.64
72024;BME280;59889;50.700;5.440;2024-02-28T09:35:35;100671.64;;;19.81;32.66
72024;BME280;59889;50.700;5.440;2024-02-28T09:38:00;100670.74;;;19.70;32.81
72024;BME280;59889;50.700;5.440;2024-02-28T09:40:26;100672.67;;;19.47;32.85
72024;BME280;59889;50.700;5.440;2024-02-28T09:42:52;100671.37;;;19.17;32.90
72024;BME280;59889;50.700;5.440;2024-02-28T09:45:16;100667.06;;;19.28;32.77
72024;BME280;59889;50.700;5.440;2024-02-28T09:47:41;100660.43;;;19.71;32.79
72024;BME280;59889;50.700;5.440;2024-02-28T09:50:07;100656.30;;;19.45;32.81
72024;BME280;59889;50.700;5.440;2024-02-28T09:52:32;100658.16;;;19.17;32.73
72024;BME280;59889;50.700;5.440;2024-02-28T09:54:58;100659.88;;;19.39;32.80
72024;BME280;59889;50.700;5.440;2024-02-28T09:57:23;100663.97;;;19.19;32.84
72024;BME280;59889;50.700;5.440;2024-02-28T09:59:49;100667.74;;;19.20;32.82
72024;BME280;59889;50.700;5.440;2024-02-28T10:02:15;100660.62;;;19.44;32.82
72024;BME280;59889;50.700;5.440;2024-02-28T10:04:40;100658.72;;;19.80;32.66
72024;BME280;59889;50.700;5.440;2024-02-28T10:07:10;100655.83;;;19.58;32.59
72024;BME280;59889;50.700;5.440;2024-02-28T10:09:30;100659.16;;;19.70;32.47
72024;BME280;59889;50.700;5.440;2024-02-28T10:11:56;100662.15;;;19.59;32.57
72024;BME280;59889;50.700;5.440;2024-02-28T10:14:21;100662.14;;;19.61;32.53
72024;BME280;59889;50.700;5.440;2024-02-28T10:16:46;100662.14;;;19.85;32.51
72024;BME280;59889;50.700;5.440;2024-02-28T10:19:11;100663.03;;;19.39;32.51
72024;BME280;59889;50.700;5.440;2024-02-28T10:21:37;100664.48;;;19.63;32.50
72024;BME280;59889;50.700;5.440;2024-02-28T10:24:02;100668.43;;;19.41;32.44
72024;BME280;59889;50.700;5.440;2024-02-28T10:26:27;100669.71;;;19.65;32.41
72024;BME280;59889;50.700;5.440;2024-02-28T10:28:53;100669.23;;;19.63;32.48
72024;BME280;59889;50.700;5.440;2024-02-28T10:31:21;100671.22;;;19.88;32.41
72024;BME280;59889;50.700;5.440;2024-02-28T10:33:43;100668.40;;;19.63;32.43
72024;BME280;59889;50.700;5.440;2024-02-28T10:36:09;100671.24;;;19.33;32.65
72024;BME280;59889;50.700;5.440;2024-02-28T10:38:34;100671.04;;;19.47;32.08
72024;BME280;59889;50.700;5.440;2024-02-28T10:41:00;100672.96;;;19.27;32.25
72024;BME280;59889;50.700;5.440;2024-02-28T10:43:28;100677.24;;;19.58;32.53
72024;BME280;59889;50.700;5.440;2024-02-28T10:45:50;100681.18;;;19.66;32.60
72024;BME280;59889;50.700;5.440;2024-02-28T10:48:15;100680.38;;;19.69;32.63
72024;BME280;59889;50.700;5.440;2024-02-28T10:50:40;100677.50;;;19.45;32.64
72024;BME280;59889;50.700;5.440;2024-02-28T10:53:10;100680.42;;;19.68;32.70
72024;BME280;59889;50.700;5.440;2024-02-28T10:55:33;100676.66;;;19.74;32.68
72024;BME280;59889;50.700;5.440;2024-02-28T10:58:01;100668.12;;;19.45;32.74
72024;BME280;59889;50.700;5.440;2024-02-28T11:00:22;100666.05;;;19.46;32.76
72024;BME280;59889;50.700;5.440;2024-02-28T11:02:47;100665.30;;;19.46;32.76
72024;BME280;59889;50.700;5.440;2024-02-28T11:05:12;100661.96;;;19.67;32.73
72024;BME280;59889;50.700;5.440;2024-02-28T11:07:40;100660.66;;;19.37;32.58
72024;BME280;59889;50.700;5.440;2024-02-28T11:10:05;100663.92;;;19.59;32.46
72024;BME280;59889;50.700;5.440;2024-02-28T11:12:29;100664.72;;;19.55;32.43
72024;BME280;59889;50.700;5.440;2024-02-28T11:14:58;100663.15;;;19.57;32.32
72024;BME280;59889;50.700;5.440;2024-02-28T11:17:26;100660.65;;;19.49;32.30
72024;BME280;59889;50.700;5.440;2024-02-28T11:19:44;100656.86;;;19.49;32.27
72024;BME280;59889;50.700;5.440;2024-02-28T11:22:11;100659.28;;;19.53;32.14
72024;BME280;59889;50.700;5.440;2024-02-28T11:24:35;100663.80;;;19.77;32.08
72024;BME280;59889;50.700;5.440;2024-02-28T11:27:00;100662.81;;;19.54;32.03
72024;BME280;59889;50.700;5.440;2024-02-28T11:29:26;100659.09;;;19.61;32.05
72024;BME280;59889;50.700;5.440;2024-02-28T11:31:50;100655.93;;;19.64;32.20
72024;BME280;59889;50.700;5.440;2024-02-28T11:34:15;100647.65;;;19.73;32.23
72024;BME280;59889;50.700;5.440;2024-02-28T11:36:40;100652.07;;;19.44;32.37
72024;BME280;59889;50.700;5.440;2024-02-28T11:39:06;100649.15;;;19.26;32.55
72024;BME280;59889;50.700;5.440;2024-02-28T11:41:31;100645.97;;;19.69;32.42
72024;BME280;59889;50.700;5.440;2024-02-28T11:43:56;100644.36;;;19.76;32.42
72024;BME280;59889;50.700;5.440;2024-02-28T11:46:23;100645.58;;;19.52;32.46
72024;BME280;59889;50.700;5.440;2024-02-28T11:48:48;100640.64;;;19.76;32.49
72024;BME280;59889;50.700;5.440;2024-02-28T11:51:13;100637.08;;;19.56;32.49
72024;BME280;59889;50.700;5.440;2024-02-28T11:53:39;100630.70;;;19.55;32.53
72024;BME280;59889;50.700;5.440;2024-02-28T11:56:04;100625.85;;;19.56;32.56
72024;BME280;59889;50.700;5.440;2024-02-28T11:58:29;100626.14;;;19.53;32.63
72024;BME280;59889;50.700;5.440;2024-02-28T12:00:54;100624.49;;;19.37;32.57
72024;BME280;59889;50.700;5.440;2024-02-28T12:03:21;100625.49;;;19.66;32.54
72024;BME280;59889;50.700;5.440;2024-02-28T12:05:45;100622.86;;;19.61;32.61
72024;BME280;59889;50.700;5.440;2024-02-28T12:08:11;100619.08;;;19.54;32.72
72024;BME280;59889;50.700;5.440;2024-02-28T12:10:36;100617.11;;;19.55;32.72
72024;BME280;59889;50.700;5.440;2024-02-28T12:13:01;100616.18;;;19.76;32.78
72024;BME280;59889;50.700;5.440;2024-02-28T12:15:28;100613.19;;;19.60;32.72
72024;BME280;59889;50.700;5.440;2024-02-28T12:17:52;100607.34;;;19.84;32.72
72024;BME280;59889;50.700;5.440;2024-02-28T12:20:16;100605.68;;;20.06;32.78
72024;BME280;59889;50.700;5.440;2024-02-28T12:22:41;100596.52;;;19.56;32.81
72024;BME280;59889;50.700;5.440;2024-02-28T12:25:06;100595.65;;;19.53;32.88
72024;BME280;59889;50.700;5.440;2024-02-28T12:27:31;100590.84;;;19.82;32.83
72024;BME280;59889;50.700;5.440;2024-02-28T12:29:56;100585.39;;;19.57;32.86
72024;BME280;59889;50.700;5.440;2024-02-28T12:32:22;100582.77;;;19.59;32.89
72024;BME280;59889;50.700;5.440;2024-02-28T12:34:47;100581.26;;;19.54;32.92
72024;BME280;59889;50.700;5.440;2024-02-28T12:37:12;100581.05;;;19.82;32.88
72024;BME280;59889;50.700;5.440;2024-02-28T12:39:37;100579.21;;;19.57;32.91